Time;durP1;ratioP1;P1;durP2;ratioP2;P2;SDS_P1;SDS_P2;PMS_P1;PMS_P2;Temp;Humidity;BMP_temperature;BMP_pressure;BME280_temperature;BME280_humidity;BME280_pressure;Samples;Min_cycle;Max_cycle;Signal;HPM_P1;HPM_P2
2021/09/12 00:00:59;;;;;;;22.30;14.23;;;17.60;99.90;;;;;;5032596;28;20458;-71
2021/09/12 00:03:25;;;;;;;20.70;13.97;;;17.60;99.90;;;;;;5033327;28;20168;-71
2021/09/12 00:05:51;;;;;;;18.93;13.00;;;17.60;99.90;;;;;;5033290;28;20198;-71
2021/09/12 00:08:17;;;;;;;18.00;14.03;;;17.60;99.90;;;;;;5033114;28;20390;-71
2021/09/12 00:10:43;;;;;;;18.33;13.63;;;17.60;99.90;;;;;;5025202;28;20625;-71
2021/09/12 00:13:09;;;;;;;21.37;14.60;;;17.60;99.90;;;;;;5020687;28;20588;-71
2021/09/12 00:15:34;;;;;;;17.90;13.60;;;17.60;99.90;;;;;;5033030;28;20391;-71
2021/09/12 00:18:00;;;;;;;18.33;13.87;;;17.60;99.90;;;;;;5033138;28;20165;-71
2021/09/12 00:20:25;;;;;;;18.77;12.90;;;17.60;99.90;;;;;;5031545;28;20208;-71
2021/09/12 00:22:51;;;;;;;16.37;12.73;;;17.60;99.90;;;;;;5029980;28;20542;-71
2021/09/12 00:25:16;;;;;;;20.70;13.77;;;17.60;99.90;;;;;;5013368;28;20210;-71
2021/09/12 00:27:42;;;;;;;19.10;12.60;;;17.60;99.90;;;;;;5020549;28;20183;-71
2021/09/12 00:30:09;;;;;;;22.23;12.67;;;17.60;99.90;;;;;;5031039;28;20191;-71
2021/09/12 00:32:35;;;;;;;21.60;13.97;;;17.60;99.90;;;;;;5032517;28;20451;-71
2021/09/12 00:35:01;;;;;;;18.17;12.60;;;17.60;99.90;;;;;;5032816;28;20388;-71
2021/09/12 00:37:27;;;;;;;21.43;13.87;;;17.60;99.90;;;;;;5032836;28;20444;-71
2021/09/12 00:39:52;;;;;;;22.53;14.93;;;17.60;99.90;;;;;;5032536;28;20203;-71
2021/09/12 00:42:18;;;;;;;17.57;12.53;;;17.60;99.90;;;;;;5032375;28;20277;-71
2021/09/12 00:44:43;;;;;;;20.17;13.00;;;17.50;99.90;;;;;;5026272;28;20267;-71
2021/09/12 00:47:11;;;;;;;18.33;12.77;;;17.60;99.90;;;;;;5024788;28;20229;-71
2021/09/12 00:49:37;;;;;;;18.13;11.83;;;17.50;99.90;;;;;;5012925;28;20162;-71
2021/09/12 00:52:07;;;;;;;17.77;12.47;;;17.50;99.90;;;;;;5012970;28;20407;-71
2021/09/12 00:54:34;;;;;;;20.73;12.03;;;17.60;99.90;;;;;;5012955;28;20476;-71
2021/09/12 00:57:01;;;;;;;18.40;12.27;;;17.60;99.90;;;;;;5032132;28;20884;-71
2021/09/12 00:59:28;;;;;;;22.83;13.20;;;17.60;99.90;;;;;;5032619;28;20436;-71
2021/09/12 01:01:56;;;;;;;18.17;11.83;;;17.60;99.90;;;;;;5031163;28;20454;-71
2021/09/12 01:04:22;;;;;;;19.27;12.83;;;17.60;99.90;;;;;;5031852;28;20855;-71
2021/09/12 01:06:48;;;;;;;18.03;11.50;;;17.60;99.90;;;;;;5031874;28;20453;-71
2021/09/12 01:09:13;;;;;;;18.73;12.27;;;17.60;99.90;;;;;;5032546;28;20394;-71
2021/09/12 01:11:39;;;;;;;15.17;11.83;;;17.50;99.90;;;;;;5032458;28;20651;-71
2021/09/12 01:14:05;;;;;;;19.30;12.60;;;17.50;99.90;;;;;;5032396;28;20226;-71
2021/09/12 01:16:30;;;;;;;17.40;11.77;;;17.50;99.90;;;;;;5031921;28;20185;-71
2021/09/12 01:18:56;;;;;;;20.93;13.50;;;17.50;99.90;;;;;;5023373;28;20666;-71
2021/09/12 01:21:23;;;;;;;15.90;13.03;;;17.50;99.90;;;;;;5019257;28;20209;-71
2021/09/12 01:23:49;;;;;;;18.47;11.13;;;17.50;99.90;;;;;;5028436;28;20201;-71
2021/09/12 01:26:24;;;;;;;18.60;11.90;;;17.50;99.90;;;;;;5031720;28;20424;-71
2021/09/12 01:28:50;;;;;;;18.23;13.47;;;17.50;99.90;;;;;;5031651;28;20411;-71
2021/09/12 01:31:26;;;;;;;16.80;12.60;;;17.50;99.90;;;;;;5019286;28;20412;-71
2021/09/12 01:33:51;;;;;;;24.40;14.03;;;17.50;99.90;;;;;;5012665;28;20396;-71
2021/09/12 01:36:17;;;;;;;20.80;13.60;;;17.50;99.90;;;;;;5024795;28;20932;-71
2021/09/12 01:38:44;;;;;;;18.13;13.43;;;17.40;99.90;;;;;;5019757;28;20192;-71
2021/09/12 01:41:10;;;;;;;19.37;12.93;;;17.40;99.90;;;;;;5012338;28;20469;-71
2021/09/12 01:43:44;;;;;;;22.43;14.50;;;17.40;99.90;;;;;;5028095;28;20470;-71
2021/09/12 01:46:09;;;;;;;21.50;12.90;;;17.40;99.90;;;;;;5031610;28;20176;-71
2021/09/12 01:48:35;;;;;;;17.40;13.60;;;17.40;99.90;;;;;;5034170;28;20410;-71
2021/09/12 01:51:01;;;;;;;19.70;13.10;;;17.40;99.90;;;;;;5035846;28;20185;-71
2021/09/12 01:53:26;;;;;;;19.13;13.37;;;17.40;99.90;;;;;;5034721;28;20182;-71
2021/09/12 01:55:52;;;;;;;19.97;13.07;;;17.40;99.90;;;;;;5034588;28;20250;-71
2021/09/12 01:58:17;;;;;;;19.57;15.00;;;17.40;99.90;;;;;;5034484;28;20283;-71
2021/09/12 02:00:43;;;;;;;19.70;14.10;;;17.30;99.90;;;;;;5035526;28;20193;-71
2021/09/12 02:03:09;;;;;;;18.50;13.33;;;17.30;99.90;;;;;;5035480;28;20164;-71
2021/09/12 02:05:34;;;;;;;22.07;14.30;;;17.30;99.90;;;;;;5035140;28;20434;-71
2021/09/12 02:08:00;;;;;;;23.97;16.63;;;17.30;99.90;;;;;;5035499;28;20241;-71
2021/09/12 02:10:26;;;;;;;18.40;13.37;;;17.30;99.90;;;;;;5034763;28;20181;-71
2021/09/12 02:12:53;;;;;;;21.40;12.67;;;17.30;99.90;;;;;;5025561;28;20263;-71
2021/09/12 02:15:18;;;;;;;18.43;13.23;;;17.30;99.90;;;;;;5030182;28;20749;-71
2021/09/12 02:17:44;;;;;;;20.63;12.77;;;17.30;99.90;;;;;;5035266;28;20471;-71
2021/09/12 02:20:10;;;;;;;21.23;13.43;;;17.20;99.90;;;;;;5026388;28;20178;-71
2021/09/12 02:22:36;;;;;;;19.13;13.27;;;17.20;99.90;;;;;;5015421;28;20530;-71
2021/09/12 02:25:01;;;;;;;21.90;14.37;;;17.20;99.90;;;;;;5019334;28;20432;-71
2021/09/12 02:27:27;;;;;;;23.50;14.07;;;17.20;99.90;;;;;;5021519;28;20189;-71
2021/09/12 02:29:53;;;;;;;25.47;15.20;;;17.20;99.90;;;;;;5015956;28;20447;-71
2021/09/12 02:32:18;;;;;;;22.63;13.80;;;17.10;99.90;;;;;;5033824;28;20550;-71
2021/09/12 02:34:44;;;;;;;25.80;15.60;;;17.10;99.90;;;;;;5035053;28;20487;-71
2021/09/12 02:37:09;;;;;;;24.47;14.40;;;17.10;99.90;;;;;;5034990;28;20252;-71
2021/09/12 02:39:35;;;;;;;21.73;13.30;;;17.10;99.90;;;;;;5034777;28;20236;-71
2021/09/12 02:42:00;;;;;;;20.37;13.43;;;17.10;99.90;;;;;;5034411;28;20237;-71
2021/09/12 02:44:26;;;;;;;20.63;13.73;;;17.00;99.90;;;;;;5035147;28;20521;-72
2021/09/12 02:46:52;;;;;;;22.77;12.73;;;17.00;99.90;;;;;;5034070;28;20176;-73
2021/09/12 02:49:17;;;;;;;19.00;12.50;;;17.00;99.90;;;;;;5034749;28;20535;-73
2021/09/12 02:51:43;;;;;;;20.90;13.07;;;17.00;99.90;;;;;;5033876;28;20224;-73
2021/09/12 02:54:08;;;;;;;17.60;13.53;;;17.00;99.90;;;;;;5035121;28;20156;-69
2021/09/12 02:56:34;;;;;;;19.40;12.73;;;17.00;99.90;;;;;;5034628;28;20614;-69
2021/09/12 02:58:59;;;;;;;20.63;13.20;;;17.00;99.90;;;;;;5034614;28;20739;-69
2021/09/12 03:01:25;;;;;;;19.33;12.50;;;17.00;99.90;;;;;;5031710;28;20196;-69
2021/09/12 03:03:50;;;;;;;17.37;13.37;;;16.90;99.90;;;;;;5019586;28;20258;-69
2021/09/12 03:06:16;;;;;;;18.30;13.83;;;17.00;99.90;;;;;;5014531;28;20161;-69
2021/09/12 03:08:43;;;;;;;23.90;13.70;;;17.00;99.90;;;;;;5014687;28;20158;-69
2021/09/12 03:11:08;;;;;;;20.30;13.80;;;17.00;99.90;;;;;;5025323;28;20219;-69
2021/09/12 03:13:34;;;;;;;22.73;14.33;;;17.00;99.90;;;;;;5014689;28;20412;-69
2021/09/12 03:15:59;;;;;;;19.17;12.37;;;17.00;99.90;;;;;;5014578;28;20161;-69
2021/09/12 03:18:25;;;;;;;20.47;14.33;;;17.00;99.90;;;;;;5016764;28;20181;-69
2021/09/12 03:20:51;;;;;;;20.10;13.83;;;17.00;99.90;;;;;;5032648;28;20192;-69
2021/09/12 03:23:16;;;;;;;20.47;13.93;;;17.00;99.90;;;;;;5033384;28;20211;-69
2021/09/12 03:25:42;;;;;;;17.03;12.67;;;17.00;99.90;;;;;;5028938;28;20172;-69
2021/09/12 03:28:07;;;;;;;22.20;15.00;;;17.10;99.90;;;;;;5014305;28;20197;-69
2021/09/12 03:30:33;;;;;;;20.60;13.70;;;17.10;99.90;;;;;;5023693;28;20211;-69
2021/09/12 03:32:58;;;;;;;21.20;14.20;;;17.10;99.90;;;;;;5014188;28;20159;-69
2021/09/12 03:35:24;;;;;;;28.90;15.03;;;17.10;99.90;;;;;;5014860;28;20185;-69
2021/09/12 03:37:50;;;;;;;24.10;13.87;;;17.10;99.90;;;;;;5014598;28;20589;-69
2021/09/12 03:40:15;;;;;;;25.30;16.00;;;17.10;99.90;;;;;;5013841;28;20664;-69
2021/09/12 03:42:41;;;;;;;19.70;14.07;;;17.10;99.90;;;;;;5031329;28;20173;-69
2021/09/12 03:45:07;;;;;;;19.47;13.63;;;17.20;99.90;;;;;;5033722;28;20157;-69
2021/09/12 03:47:32;;;;;;;22.20;14.07;;;17.20;99.90;;;;;;5033662;28;20518;-69
2021/09/12 03:49:58;;;;;;;20.60;15.17;;;17.20;99.90;;;;;;5033099;28;20453;-69
2021/09/12 03:52:23;;;;;;;22.00;13.53;;;17.20;99.90;;;;;;5022428;28;20195;-69
2021/09/12 03:54:49;;;;;;;20.43;14.73;;;17.20;99.90;;;;;;5020227;28;20184;-69
2021/09/12 03:57:15;;;;;;;21.27;14.43;;;17.10;99.90;;;;;;5014139;28;20154;-69
2021/09/12 03:59:40;;;;;;;19.47;14.63;;;17.20;99.90;;;;;;5015576;28;20235;-69
2021/09/12 04:02:06;;;;;;;26.57;16.63;;;17.10;99.90;;;;;;5033230;28;20251;-69
2021/09/12 04:04:31;;;;;;;20.60;14.00;;;17.10;99.90;;;;;;5033437;28;20232;-69
2021/09/12 04:06:57;;;;;;;23.30;14.50;;;17.20;99.90;;;;;;5033272;28;20157;-69
2021/09/12 04:09:22;;;;;;;25.87;14.73;;;17.20;99.90;;;;;;5020618;28;20181;-69
2021/09/12 04:11:48;;;;;;;21.43;13.53;;;17.20;99.90;;;;;;5020806;28;20177;-69
2021/09/12 04:14:13;;;;;;;23.57;15.10;;;17.20;99.90;;;;;;5013616;28;20208;-69
2021/09/12 04:16:39;;;;;;;27.37;15.80;;;17.20;99.90;;;;;;5013531;28;20275;-69
2021/09/12 04:19:05;;;;;;;22.20;14.60;;;17.20;99.90;;;;;;5017229;28;20271;-69
2021/09/12 04:21:30;;;;;;;19.70;14.27;;;17.20;99.90;;;;;;5032620;28;20243;-69
2021/09/12 04:23:56;;;;;;;22.97;15.23;;;17.20;99.90;;;;;;5032807;28;20430;-69
2021/09/12 04:26:21;;;;;;;29.03;15.77;;;17.20;99.90;;;;;;5020392;28;20185;-69
2021/09/12 04:28:47;;;;;;;25.60;15.97;;;17.20;99.90;;;;;;5013980;28;20224;-69
2021/09/12 04:31:13;;;;;;;22.03;14.80;;;17.20;99.90;;;;;;5029081;28;20184;-69
2021/09/12 04:33:38;;;;;;;18.87;13.60;;;17.20;99.90;;;;;;5032998;28;20165;-69
2021/09/12 04:36:04;;;;;;;20.70;15.20;;;17.20;99.90;;;;;;5032891;28;20701;-69
2021/09/12 04:38:29;;;;;;;23.53;14.83;;;17.20;99.90;;;;;;5032935;28;20188;-69
2021/09/12 04:40:55;;;;;;;22.93;14.00;;;17.20;99.90;;;;;;5032254;28;20683;-69
2021/09/12 04:43:21;;;;;;;23.03;14.63;;;17.20;99.90;;;;;;5020373;28;20181;-69
2021/09/12 04:45:46;;;;;;;20.27;15.00;;;17.10;99.90;;;;;;5013622;28;20174;-69
2021/09/12 04:48:12;;;;;;;27.70;15.33;;;17.20;99.90;;;;;;5013173;28;20215;-69
2021/09/12 04:50:37;;;;;;;24.00;16.00;;;17.10;99.90;;;;;;5031615;28;20187;-69
2021/09/12 04:53:03;;;;;;;18.77;14.77;;;17.10;99.90;;;;;;5053214;28;20176;-69
2021/09/12 04:55:29;;;;;;;22.63;15.63;;;17.10;99.90;;;;;;5053003;28;20156;-69
2021/09/12 04:57:54;;;;;;;22.13;16.70;;;17.10;99.90;;;;;;5052732;28;20164;-69
2021/09/12 05:00:20;;;;;;;26.77;15.17;;;17.10;99.90;;;;;;5036557;28;20211;-69
2021/09/12 05:02:47;;;;;;;21.83;15.03;;;17.10;99.90;;;;;;5019903;28;20236;-69
2021/09/12 05:05:13;;;;;;;18.53;13.37;;;17.10;99.90;;;;;;5013050;28;20208;-69
2021/09/12 05:07:39;;;;;;;21.30;13.67;;;17.10;99.90;;;;;;5014500;28;20436;-69
2021/09/12 05:10:05;;;;;;;17.83;12.43;;;17.10;99.90;;;;;;5013181;28;20231;-69
2021/09/12 05:12:30;;;;;;;17.23;13.13;;;17.10;99.90;;;;;;5031666;28;20177;-69
2021/09/12 05:14:56;;;;;;;25.47;13.33;;;17.10;99.90;;;;;;5032591;28;20402;-69
2021/09/12 05:17:22;;;;;;;13.50;10.27;;;17.10;99.90;;;;;;5031773;28;20184;-69
2021/09/12 05:19:48;;;;;;;15.50;10.70;;;17.10;99.90;;;;;;5030796;28;20759;-69
2021/09/12 05:22:14;;;;;;;17.40;11.60;;;17.10;99.90;;;;;;5032755;28;20523;-69
2021/09/12 05:24:39;;;;;;;17.87;11.47;;;17.10;99.90;;;;;;5036639;28;20223;-69
2021/09/12 05:27:05;;;;;;;17.90;11.57;;;17.10;99.90;;;;;;5033801;28;20157;-69
2021/09/12 05:29:31;;;;;;;15.33;12.13;;;17.10;99.90;;;;;;5021838;28;20178;-69
2021/09/12 05:31:56;;;;;;;14.10;9.83;;;17.10;99.90;;;;;;5034599;28;20457;-69
2021/09/12 05:34:22;;;;;;;12.80;10.60;;;17.00;99.90;;;;;;5023434;28;20263;-69
2021/09/12 05:36:47;;;;;;;13.90;9.97;;;17.00;99.90;;;;;;5017470;28;20655;-69
2021/09/12 05:39:14;;;;;;;10.63;9.00;;;17.00;99.90;;;;;;5016566;28;20685;-69
2021/09/12 05:41:40;;;;;;;19.63;10.27;;;16.90;99.90;;;;;;5025774;28;20673;-69
2021/09/12 05:44:05;;;;;;;11.97;9.43;;;16.90;99.90;;;;;;5036142;28;20395;-69
2021/09/12 05:46:32;;;;;;;10.30;8.30;;;16.90;99.90;;;;;;5035890;28;20169;-69
2021/09/12 05:48:57;;;;;;;13.30;9.90;;;16.90;99.90;;;;;;5035050;28;20177;-69
2021/09/12 05:51:23;;;;;;;14.03;8.80;;;16.80;99.90;;;;;;5024956;28;20412;-69
2021/09/12 05:53:49;;;;;;;15.07;9.33;;;16.80;99.90;;;;;;5016819;28;20181;-69
2021/09/12 05:56:14;;;;;;;11.53;8.10;;;16.80;99.90;;;;;;5016244;28;20220;-69
2021/09/12 05:58:40;;;;;;;11.57;8.03;;;16.90;99.90;;;;;;5031083;28;20254;-69
2021/09/12 06:01:05;;;;;;;10.30;8.50;;;16.90;99.90;;;;;;5034898;28;20262;-69
2021/09/12 06:03:31;;;;;;;11.30;7.43;;;16.90;99.90;;;;;;5035781;28;20164;-69
2021/09/12 06:05:56;;;;;;;9.20;7.47;;;17.00;99.90;;;;;;5035599;28;20565;-69
2021/09/12 06:08:22;;;;;;;8.90;7.27;;;17.00;99.90;;;;;;5034969;28;20277;-69
2021/09/12 06:10:47;;;;;;;9.00;5.90;;;17.00;99.90;;;;;;5022311;28;20181;-69
2021/09/12 06:13:13;;;;;;;9.90;6.83;;;17.10;99.90;;;;;;5015533;28;20169;-69
2021/09/12 06:15:38;;;;;;;6.80;5.67;;;17.20;99.90;;;;;;5015849;28;20230;-69
2021/09/12 06:18:04;;;;;;;9.53;4.87;;;17.20;99.90;;;;;;5015696;28;20653;-69
2021/09/12 06:20:30;;;;;;;6.10;5.30;;;17.30;99.90;;;;;;5030464;28;20207;-69
2021/09/12 06:22:55;;;;;;;7.67;5.37;;;17.40;99.90;;;;;;5035431;28;20165;-69
2021/09/12 06:25:21;;;;;;;7.70;5.30;;;17.40;99.90;;;;;;5022554;28;20180;-69
2021/09/12 06:27:47;;;;;;;9.03;4.63;;;17.40;99.90;;;;;;5023463;28;20233;-69
2021/09/12 06:30:14;;;;;;;6.40;4.27;;;17.50;99.90;;;;;;5033428;28;20427;-69
2021/09/12 06:32:40;;;;;;;9.20;4.80;;;17.40;99.90;;;;;;5034655;28;20478;-69
2021/09/12 06:35:07;;;;;;;4.00;3.40;;;17.40;99.90;;;;;;5034904;28;20402;-69
2021/09/12 06:37:33;;;;;;;7.70;4.90;;;17.40;99.90;;;;;;5035306;28;20153;-69
2021/09/12 06:39:59;;;;;;;5.13;4.23;;;17.40;99.90;;;;;;5035133;28;20495;-69
2021/09/12 06:42:24;;;;;;;6.67;4.30;;;17.40;99.90;;;;;;5034103;28;20455;-69
2021/09/12 06:44:50;;;;;;;6.70;4.83;;;17.50;99.90;;;;;;5033595;28;20441;-69
2021/09/12 06:47:16;;;;;;;5.83;3.90;;;17.50;99.90;;;;;;5035148;28;20165;-69
2021/09/12 06:49:42;;;;;;;9.10;4.40;;;17.60;99.90;;;;;;5034740;28;20278;-69
2021/09/12 06:52:10;;;;;;;6.23;4.00;;;17.70;99.90;;;;;;5034912;28;20404;-69
2021/09/12 06:54:35;;;;;;;6.67;3.90;;;17.70;99.90;;;;;;5034526;28;20172;-69
2021/09/12 06:57:01;;;;;;;4.90;3.60;;;17.80;99.90;;;;;;5034263;28;20510;-69
2021/09/12 06:59:26;;;;;;;3.70;3.30;;;17.90;99.90;;;;;;5034193;28;20299;-69
2021/09/12 07:01:52;;;;;;;8.13;4.43;;;18.00;99.90;;;;;;5020358;28;20219;-69
2021/09/12 07:04:17;;;;;;;5.23;4.23;;;18.10;99.90;;;;;;5019695;28;20614;-69
2021/09/12 07:06:43;;;;;;;7.60;4.60;;;18.10;99.90;;;;;;5034519;28;20160;-69
2021/09/12 07:09:09;;;;;;;5.23;3.80;;;18.20;99.90;;;;;;5034526;28;20523;-69
2021/09/12 07:11:34;;;;;;;5.70;4.20;;;18.20;99.90;;;;;;5034216;28;20272;-69
2021/09/12 07:14:00;;;;;;;4.50;4.10;;;18.20;99.90;;;;;;5033392;28;20231;-69
2021/09/12 07:16:26;;;;;;;7.93;4.50;;;18.30;99.90;;;;;;5020863;28;20271;-69
2021/09/12 07:18:51;;;;;;;8.70;3.97;;;18.30;99.90;;;;;;5015052;28;20177;-69
2021/09/12 07:21:16;;;;;;;4.23;3.83;;;18.40;99.90;;;;;;5014599;28;20181;-69
2021/09/12 07:23:42;;;;;;;5.57;3.97;;;18.50;99.90;;;;;;5014467;28;20165;-69
2021/09/12 07:26:08;;;;;;;5.27;3.83;;;18.50;99.90;;;;;;5029665;28;20612;-69
2021/09/12 07:28:33;;;;;;;6.73;4.33;;;18.50;99.90;;;;;;5033756;28;20185;-69
2021/09/12 07:30:59;;;;;;;8.03;4.90;;;18.50;99.90;;;;;;5033515;28;20665;-69
2021/09/12 07:33:25;;;;;;;9.27;5.03;;;18.50;99.90;;;;;;5020723;28;20227;-69
2021/09/12 07:35:50;;;;;;;8.33;4.70;;;18.50;99.90;;;;;;5024728;28;20180;-69
2021/09/12 07:38:16;;;;;;;9.97;5.63;;;18.50;99.90;;;;;;5033892;28;20160;-69
2021/09/12 07:40:41;;;;;;;9.70;5.90;;;18.60;99.90;;;;;;5033671;28;20200;-69
2021/09/12 07:43:07;;;;;;;8.20;4.80;;;18.70;99.90;;;;;;5033821;28;20629;-69
2021/09/12 07:45:32;;;;;;;8.20;6.13;;;18.80;99.90;;;;;;5032466;28;20643;-69
2021/09/12 07:47:58;;;;;;;7.70;4.03;;;18.80;99.90;;;;;;5033867;28;20157;-69
2021/09/12 07:50:23;;;;;;;7.20;4.83;;;18.80;99.90;;;;;;5031583;28;20260;-69
2021/09/12 07:52:49;;;;;;;8.63;4.40;;;18.90;99.90;;;;;;5033048;28;20195;-69
2021/09/12 07:55:15;;;;;;;11.97;4.43;;;19.00;99.90;;;;;;5033155;28;20215;-69
2021/09/12 07:57:41;;;;;;;5.23;4.27;;;19.00;99.90;;;;;;5021999;28;20734;-69
2021/09/12 08:00:08;;;;;;;6.87;4.63;;;19.10;99.90;;;;;;5013705;28;20569;-69
2021/09/12 08:02:34;;;;;;;7.00;4.03;;;19.00;99.90;;;;;;5031875;28;20446;-69
2021/09/12 08:05:00;;;;;;;7.97;4.73;;;19.10;99.90;;;;;;5033278;28;20804;-69
2021/09/12 08:07:25;;;;;;;5.50;4.17;;;19.10;99.90;;;;;;5032512;28;20229;-69
2021/09/12 08:09:51;;;;;;;6.60;4.40;;;19.20;99.90;;;;;;5032616;28;20177;-69
2021/09/12 08:12:16;;;;;;;7.57;4.10;;;19.30;99.90;;;;;;5015656;28;20639;-69
2021/09/12 08:14:42;;;;;;;5.53;3.80;;;19.30;99.90;;;;;;5025682;28;20165;-69
2021/09/12 08:17:08;;;;;;;4.70;4.13;;;19.40;99.90;;;;;;5032834;28;20207;-69
2021/09/12 08:19:33;;;;;;;5.70;4.17;;;19.60;99.90;;;;;;5033491;28;20168;-69
2021/09/12 08:21:59;;;;;;;4.90;3.77;;;19.70;99.90;;;;;;5033117;28;20190;-69
2021/09/12 08:24:24;;;;;;;4.20;3.80;;;19.90;99.90;;;;;;5032722;28;20616;-69
2021/09/12 08:26:50;;;;;;;5.43;3.40;;;20.00;99.90;;;;;;5020426;28;20184;-69
2021/09/12 08:29:16;;;;;;;5.03;3.20;;;20.00;99.90;;;;;;5033111;28;20164;-69
2021/09/12 08:31:41;;;;;;;8.27;3.87;;;20.10;99.90;;;;;;5031198;28;20275;-69
2021/09/12 08:34:07;;;;;;;5.33;3.53;;;20.10;99.90;;;;;;5015680;28;20256;-69
2021/09/12 08:36:33;;;;;;;3.70;3.33;;;20.10;99.90;;;;;;5013452;28;20709;-69
2021/09/12 08:38:58;;;;;;;3.90;3.37;;;20.10;99.90;;;;;;5013511;28;20527;-69
2021/09/12 08:41:24;;;;;;;8.30;5.23;;;20.10;99.90;;;;;;5015426;28;20204;-69
2021/09/12 08:43:50;;;;;;;5.60;4.20;;;20.10;99.90;;;;;;5013702;28;20709;-69
2021/09/12 08:46:17;;;;;;;6.77;4.30;;;20.10;99.90;;;;;;5013195;28;20525;-69
2021/09/12 08:48:44;;;;;;;5.17;3.63;;;20.10;99.90;;;;;;5020991;28;20431;-69
2021/09/12 08:51:09;;;;;;;9.70;3.20;;;20.10;99.90;;;;;;5032040;28;20426;-69
2021/09/12 08:53:35;;;;;;;4.30;3.50;;;20.20;99.90;;;;;;5032787;28;20871;-69
2021/09/12 08:56:00;;;;;;;5.20;3.30;;;20.20;99.90;;;;;;5032842;28;20565;-69
2021/09/12 08:58:27;;;;;;;4.47;3.10;;;20.30;99.90;;;;;;5022849;28;20184;-69
2021/09/12 09:00:58;;;;;;;4.67;3.13;;;20.30;99.90;;;;;;5023086;28;20204;-69
2021/09/12 09:06:17;;;;;;;5.03;3.30;;;20.30;99.90;;;;;;5090635;27;20510;-69
2021/09/12 09:11:28;;;;;;;11.20;5.57;;;20.30;99.90;;;;;;5067700;28;20528;-69
2021/09/12 09:13:54;;;;;;;7.33;3.73;;;20.20;99.90;;;;;;5069060;28;20766;-69
2021/09/12 09:16:28;;;;;;;6.23;3.13;;;20.20;99.90;;;;;;5050371;28;20402;-69
2021/09/12 09:19:03;;;;;;;9.13;3.60;;;20.30;99.90;;;;;;5050332;28;20566;-69
2021/09/12 09:21:32;;;;;;;4.60;3.23;;;20.30;99.90;;;;;;5057676;28;20448;-69
2021/09/12 09:26:47;;;;;;;2.93;2.50;;;20.40;99.90;;;;;;5111004;27;20870;-69
2021/09/12 09:29:14;;;;;;;8.03;2.47;;;20.70;99.90;;;;;;5111004;28;20492;-69
2021/09/12 09:31:41;;;;;;;3.97;3.23;;;20.90;99.90;;;;;;5101272;28;20408;-69
2021/09/12 09:34:22;;;;;;;4.47;3.17;;;21.00;99.90;;;;;;5092949;28;20821;-69
2021/09/12 09:36:49;;;;;;;5.10;3.50;;;21.30;99.90;;;;;;5090234;28;20442;-69
2021/09/12 09:39:33;;;;;;;6.10;3.53;;;21.40;99.90;;;;;;5090188;28;20385;-69
2021/09/12 09:41:58;;;;;;;3.67;3.20;;;21.40;99.90;;;;;;5100570;28;20781;-69
2021/09/12 09:44:24;;;;;;;3.90;2.60;;;21.50;99.90;;;;;;5090350;28;20425;-69
2021/09/12 09:46:50;;;;;;;5.77;2.90;;;21.50;99.90;;;;;;5090567;28;20202;-69
2021/09/12 09:52:00;;;;;;;3.10;2.70;;;21.50;99.90;;;;;;5136752;27;20523;-69
2021/09/12 09:54:29;;;;;;;5.13;2.93;;;21.20;99.90;;;;;;5130995;27;20415;-70
2021/09/12 09:56:56;;;;;;;4.30;3.00;;;21.10;99.90;;;;;;5131386;27;20418;-69
2021/09/12 09:59:23;;;;;;;4.90;4.20;;;21.10;99.90;;;;;;5131443;27;20793;-69
2021/09/12 10:01:52;;;;;;;4.10;2.83;;;21.00;99.90;;;;;;5122333;27;20465;-69
2021/09/12 10:04:19;;;;;;;4.27;3.60;;;21.00;99.90;;;;;;5112633;28;20404;-69
2021/09/12 10:06:46;;;;;;;4.73;2.83;;;21.00;99.90;;;;;;5111294;28;20408;-69
2021/09/12 10:09:13;;;;;;;4.63;2.70;;;21.10;99.90;;;;;;5111235;28;20399;-69
2021/09/12 10:11:46;;;;;;;4.30;3.17;;;21.10;99.90;;;;;;5116354;28;20455;-70
2021/09/12 10:14:16;;;;;;;6.43;2.63;;;21.20;99.90;;;;;;5110483;28;20423;-69
2021/09/12 10:16:43;;;;;;;3.47;2.60;;;21.20;99.90;;;;;;5110879;28;20872;-69
2021/09/12 10:19:09;;;;;;;3.97;2.83;;;21.20;99.90;;;;;;5110557;28;20510;-69
2021/09/12 10:21:35;;;;;;;3.10;2.40;;;21.30;99.90;;;;;;5109993;28;20428;-70
2021/09/12 10:24:07;;;;;;;2.83;2.53;;;21.30;99.90;;;;;;5117862;28;20342;-70
2021/09/12 10:26:35;;;;;;;5.93;2.50;;;21.40;99.90;;;;;;5110605;28;20182;-69
2021/09/12 10:29:02;;;;;;;3.30;2.00;;;21.50;99.90;;;;;;5129989;28;20419;-69
2021/09/12 10:34:05;;;;;;;2.67;2.47;;;21.60;99.90;;;;;;5070316;28;21044;-70
2021/09/12 10:36:31;;;;;;;6.17;3.17;;;21.70;99.90;;;;;;5070371;28;20416;-70
2021/09/12 10:39:16;;;;;;;3.87;2.27;;;21.70;99.90;;;;;;5069380;28;20390;-70
2021/09/12 10:41:42;;;;;;;4.80;2.53;;;21.80;99.90;;;;;;5058201;28;20180;-70
2021/09/12 10:44:14;;;;;;;3.70;2.23;;;21.90;99.90;;;;;;5050394;28;20473;-70
2021/09/12 10:46:39;;;;;;;4.37;2.93;;;21.90;99.90;;;;;;5060381;28;20206;-70
2021/09/12 10:49:06;;;;;;;3.43;2.77;;;21.90;99.90;;;;;;5069841;28;20433;-70
2021/09/12 10:51:35;;;;;;;6.10;2.27;;;21.90;99.90;;;;;;5058192;28;20234;-70
2021/09/12 10:54:01;;;;;;;3.17;2.30;;;21.90;99.90;;;;;;5050030;28;20395;-70
2021/09/12 10:59:10;;;;;;;3.60;2.77;;;21.90;99.90;;;;;;5063743;28;20544;-69
2021/09/12 11:01:42;;;;;;;3.53;2.43;;;22.00;99.90;;;;;;5049035;28;20414;-69
2021/09/12 11:04:10;;;;;;;1.93;1.83;;;22.00;99.90;;;;;;5049352;28;20387;-70
2021/09/12 11:06:38;;;;;;;3.53;2.33;;;22.00;99.90;;;;;;5050081;28;20391;-69
2021/09/12 11:09:15;;;;;;;3.20;2.70;;;22.00;99.90;;;;;;5050125;28;20387;-69
2021/09/12 11:11:41;;;;;;;2.73;2.40;;;22.00;99.90;;;;;;5049801;28;20426;-69
2021/09/12 11:14:08;;;;;;;3.20;2.90;;;21.90;99.90;;;;;;5050216;28;20433;-69
2021/09/12 11:16:33;;;;;;;6.00;2.77;;;21.80;99.90;;;;;;5049922;28;20171;-69
2021/09/12 11:19:01;;;;;;;2.60;2.20;;;21.70;99.90;;;;;;5049910;28;20442;-69
2021/09/12 11:21:45;;;;;;;3.00;2.50;;;21.70;99.90;;;;;;5049744;28;20203;-69
2021/09/12 11:24:16;;;;;;;3.17;2.57;;;21.50;99.90;;;;;;5050507;28;20387;-69
2021/09/12 11:29:26;;;;;;;3.50;2.80;;;21.50;99.90;;;;;;5070521;28;20504;-68
2021/09/12 11:31:54;;;;;;;4.30;2.57;;;21.50;99.90;;;;;;5052043;28;20418;-69
2021/09/12 11:34:22;;;;;;;6.63;3.70;;;21.50;99.90;;;;;;5067567;28;20484;-69
2021/09/12 11:36:51;;;;;;;3.30;2.90;;;21.60;99.90;;;;;;5070161;28;20382;-69
2021/09/12 11:39:25;;;;;;;3.13;2.47;;;21.60;99.90;;;;;;5070378;28;20413;-69
2021/09/12 11:41:52;;;;;;;3.47;2.20;;;21.60;99.90;;;;;;5058350;28;21009;-69
2021/09/12 11:44:18;;;;;;;3.80;2.30;;;21.60;99.90;;;;;;5050054;28;20395;-69
2021/09/12 11:46:46;;;;;;;2.63;2.17;;;21.60;99.90;;;;;;5050235;28;20805;-69
2021/09/12 11:49:12;;;;;;;2.63;2.17;;;21.60;99.90;;;;;;5051936;28;20799;-69
2021/09/12 11:51:40;;;;;;;3.23;2.93;;;21.60;99.90;;;;;;5069320;28;20459;-69
2021/09/12 11:54:08;;;;;;;3.20;2.20;;;21.60;99.90;;;;;;5069849;28;20166;-69
2021/09/12 11:56:35;;;;;;;2.83;2.50;;;21.70;99.90;;;;;;5070032;28;20421;-69
2021/09/12 11:59:02;;;;;;;4.90;2.43;;;21.60;99.90;;;;;;5052211;28;20447;-69
2021/09/12 12:01:27;;;;;;;7.20;2.63;;;21.60;99.90;;;;;;5049463;28;20911;-69
2021/09/12 12:03:54;;;;;;;3.10;2.70;;;21.60;99.90;;;;;;5050442;28;20406;-69
2021/09/12 12:06:20;;;;;;;4.13;2.50;;;21.60;99.90;;;;;;5061968;28;20172;-69
2021/09/12 12:09:08;;;;;;;4.10;2.33;;;21.50;99.90;;;;;;5049633;28;20454;-69
2021/09/12 12:11:35;;;;;;;2.87;2.40;;;21.50;99.90;;;;;;5057023;28;20493;-69
2021/09/12 12:14:01;;;;;;;3.47;2.43;;;21.40;99.90;;;;;;5049555;28;20391;-69
2021/09/12 12:16:27;;;;;;;2.60;2.23;;;21.50;99.90;;;;;;5049420;28;20389;-69
2021/09/12 12:19:04;;;;;;;2.90;2.37;;;21.40;99.90;;;;;;5049437;28;20395;-69
2021/09/12 12:21:31;;;;;;;2.83;2.20;;;21.40;99.90;;;;;;5066997;28;20666;-69
2021/09/12 12:23:56;;;;;;;2.50;2.30;;;21.40;99.90;;;;;;5068374;28;20413;-69
2021/09/12 12:26:23;;;;;;;3.17;2.43;;;21.30;99.90;;;;;;5067881;28;20402;-69
2021/09/12 12:28:57;;;;;;;2.93;2.60;;;21.30;99.90;;;;;;5048828;28;20571;-69
2021/09/12 12:31:24;;;;;;;3.57;2.80;;;21.30;99.90;;;;;;5048852;28;20922;-69
2021/09/12 12:33:49;;;;;;;2.97;2.63;;;21.30;99.90;;;;;;5049229;28;20406;-69
2021/09/12 12:36:17;;;;;;;3.43;2.90;;;21.30;99.90;;;;;;5049249;28;20383;-69
2021/09/12 12:38:44;;;;;;;2.40;2.20;;;21.40;99.90;;;;;;5047989;28;20183;-69
2021/09/12 12:41:12;;;;;;;3.17;2.57;;;21.50;99.90;;;;;;5042964;28;20422;-69
2021/09/12 12:43:39;;;;;;;2.30;2.10;;;21.50;99.90;;;;;;5055391;28;20737;-69
2021/09/12 12:46:05;;;;;;;4.53;2.53;;;21.60;99.90;;;;;;5055327;28;20387;-69
2021/09/12 12:48:33;;;;;;;3.53;2.70;;;21.60;99.90;;;;;;5055586;28;20457;-69
2021/09/12 12:51:17;;;;;;;3.60;2.50;;;21.60;99.90;;;;;;5047681;28;20446;-69
2021/09/12 12:53:45;;;;;;;3.90;2.33;;;21.50;99.90;;;;;;5035666;28;20430;-69